Ocoee 2 Observed Data For Previous 48 Hours

Note: Discharge information is a combination of river flows at the Ocoee No. 2 dam and the volume of water diverted by the Ocoee Flume, which bypasses the middle section of the river where recreational rafting is held.

Caption
Day and Hour Reservoir Elevation (behind dam)* Tailwater Elevation (below dam)* Average Hourly Discharge*
7/14/2018 2 AM EDT 841.44 493
7/14/2018 3 AM EDT 840.99 231
7/14/2018 4 AM EDT 840.77 142
7/14/2018 5 AM EDT 840.64 100
7/14/2018 6 AM EDT 840.58 85
7/14/2018 7 AM EDT 840.55 77
7/14/2018 8 AM EDT 840.54 75
7/14/2018 9 AM EDT 841.10 282
7/14/2018 10 AM EDT 842.51 1,429
7/14/2018 11 AM EDT 842.51 1,429
7/14/2018 12 PM EDT 842.79 1,738
7/14/2018 1 PM EDT 842.83 1,800
7/14/2018 2 PM EDT 842.86 1,839
7/14/2018 3 PM EDT 842.85 1,818
7/14/2018 4 PM EDT 842.83 1,800
7/14/2018 5 PM EDT 842.83 1,792
7/14/2018 6 PM EDT 842.81 1,792
7/14/2018 7 PM EDT 842.48 1,380
7/14/2018 8 PM EDT 841.79 740
7/14/2018 9 PM EDT 843.04 2,078
7/14/2018 10 PM EDT 842.56 1,471
7/14/2018 11 PM EDT 841.44 493
7/15/2018 12 AM EDT 841.00 235
7/15/2018 1 AM EDT 840.78 144
7/15/2018 2 AM EDT 840.65 100
7/15/2018 3 AM EDT 840.61 90
7/15/2018 4 AM EDT 840.71 116
7/15/2018 5 AM EDT 840.64 98
7/15/2018 6 AM EDT 840.59 86
7/15/2018 7 AM EDT 840.58 83
7/15/2018 8 AM EDT 840.60 83
7/15/2018 9 AM EDT 840.61 85
7/15/2018 10 AM EDT 842.51 1,429
7/15/2018 11 AM EDT 842.51 1,429
7/15/2018 12 PM EDT 842.55 1,455
7/15/2018 1 PM EDT 842.84 1,819
7/15/2018 2 PM EDT 842.85 1,819
7/15/2018 3 PM EDT 842.83 1,819
7/15/2018 4 PM EDT 842.81 1,783
7/15/2018 5 PM EDT 842.91 1,886
7/15/2018 6 PM EDT 842.74 1,693
7/15/2018 7 PM EDT 842.64 1,570
7/15/2018 8 PM EDT 842.97 1,980
7/15/2018 9 PM EDT 842.40 1,310
7/15/2018 10 PM EDT 842.41 1,310
7/15/2018 11 PM EDT 842.37 1,273
7/16/2018 12 AM EDT 842.37 1,271
7/16/2018 1 AM EDT 842.32 1,233
7/16/2018 2 AM EDT 842.37 1,280

Elevations are in feet above sea level. Discharges are in cubic feet per second and are reported at the end of the hour.